createdAt,value
2019-03-13T00:01:29.258Z,59.93
2019-03-13T00:04:02.346Z,59.65
2019-03-13T00:06:35.562Z,59.55
2019-03-13T00:09:13.121Z,59.93
2019-03-13T00:11:46.035Z,59.91
2019-03-13T00:14:20.174Z,59.75
2019-03-13T00:16:54.247Z,59.91
2019-03-13T00:19:27.212Z,60.11
2019-03-13T00:22:00.134Z,59.79
2019-03-13T00:24:33.224Z,59.95
2019-03-13T00:27:06.036Z,60.18
2019-03-13T00:29:40.113Z,60.12
2019-03-13T00:32:14.417Z,60.20
2019-03-13T00:34:47.279Z,59.97
2019-03-13T00:37:20.126Z,59.85
2019-03-13T00:39:52.953Z,59.52
2019-03-13T00:42:25.903Z,59.94
2019-03-13T00:44:58.706Z,59.98
2019-03-13T00:47:31.655Z,59.92
2019-03-13T00:50:04.472Z,59.98
2019-03-13T00:52:37.253Z,60.18
2019-03-13T00:55:10.086Z,60.20
2019-03-13T00:57:42.820Z,60.32
2019-03-13T01:00:21.085Z,59.80
2019-03-13T01:02:54.385Z,59.80
2019-03-13T01:05:32.645Z,59.78
2019-03-13T01:08:05.522Z,60.13
2019-03-13T01:10:38.386Z,59.88
2019-03-13T01:13:11.205Z,59.79
2019-03-13T01:15:44.043Z,59.96
2019-03-13T01:18:16.844Z,59.92
2019-03-13T01:20:49.696Z,59.82
2019-03-13T01:23:22.647Z,59.73
2019-03-13T01:25:55.533Z,59.73
2019-03-13T01:28:28.557Z,59.66
2019-03-13T01:31:35.468Z,59.63
2019-03-13T01:34:26.023Z,59.29
2019-03-13T01:36:58.920Z,59.55
2019-03-13T01:39:31.799Z,59.19
2019-03-13T01:42:04.545Z,59.13
2019-03-13T01:44:40.458Z,59.32
2019-03-13T01:47:11.853Z,59.31
2019-03-13T01:49:44.676Z,59.29
2019-03-13T01:52:17.808Z,59.18
2019-03-13T01:54:50.638Z,59.09
2019-03-13T01:57:23.463Z,59.36
2019-03-13T01:59:56.396Z,59.11
2019-03-13T02:02:29.310Z,58.67
2019-03-13T02:05:02.151Z,58.89
2019-03-13T02:07:35.066Z,58.53
2019-03-13T02:10:08.895Z,58.71
2019-03-13T02:12:43.998Z,58.36
2019-03-13T02:15:21.196Z,58.03
2019-03-13T02:17:54.367Z,58.28
2019-03-13T02:20:27.450Z,57.91
2019-03-13T02:23:00.441Z,57.57
2019-03-13T02:25:33.269Z,57.76
2019-03-13T02:28:06.130Z,57.95
2019-03-13T02:30:38.941Z,57.47
2019-03-13T02:33:11.730Z,57.67
2019-03-13T02:35:44.572Z,57.77
2019-03-13T02:38:17.458Z,57.96
2019-03-13T02:40:50.508Z,57.67
2019-03-13T02:43:23.332Z,57.84
2019-03-13T02:45:56.180Z,57.96
2019-03-13T02:48:29.057Z,58.23
2019-03-13T02:51:01.956Z,57.77
2019-03-13T02:53:34.736Z,57.96
2019-03-13T02:56:07.623Z,57.80
2019-03-13T02:58:40.521Z,58.09
2019-03-13T03:01:20.883Z,58.26
2019-03-13T03:03:55.773Z,58.37
2019-03-13T03:06:28.572Z,57.76
2019-03-13T03:09:01.422Z,57.79
2019-03-13T03:11:35.759Z,57.95
2019-03-13T03:14:09.483Z,57.71
2019-03-13T03:16:42.317Z,58.04
2019-03-13T03:19:15.141Z,57.65
2019-03-13T03:21:47.942Z,57.71
2019-03-13T03:24:20.771Z,57.53
2019-03-13T03:26:53.700Z,56.87
2019-03-13T03:29:26.605Z,57.50
2019-03-13T03:31:59.504Z,57.86
2019-03-13T03:34:32.350Z,57.73
2019-03-13T03:37:05.174Z,56.80
2019-03-13T03:39:37.970Z,57.37
2019-03-13T03:42:11.177Z,57.26
2019-03-13T03:44:43.931Z,57.36
2019-03-13T03:47:16.771Z,57.27
2019-03-13T03:49:49.493Z,57.46
2019-03-13T03:52:22.299Z,57.27
2019-03-13T03:54:55.102Z,57.48
2019-03-13T03:57:27.838Z,57.49
2019-03-13T04:00:00.658Z,57.50
2019-03-13T04:02:33.561Z,57.19
2019-03-13T04:05:06.797Z,57.46
2019-03-13T04:07:39.572Z,57.22
2019-03-13T04:10:12.748Z,57.40
2019-03-13T04:12:45.661Z,57.20
2019-03-13T04:15:18.890Z,57.61
2019-03-13T04:17:51.618Z,57.03
2019-03-13T04:20:24.414Z,56.88
2019-03-13T04:22:57.199Z,56.42
2019-03-13T04:25:37.369Z,55.83
2019-03-13T04:28:10.193Z,55.14
2019-03-13T04:30:42.921Z,55.47
2019-03-13T04:33:15.922Z,55.74
2019-03-13T04:35:48.608Z,55.90
2019-03-13T04:38:21.445Z,55.88
2019-03-13T04:40:54.183Z,55.86
2019-03-13T04:43:27.117Z,56.32
2019-03-13T04:45:59.850Z,56.21
2019-03-13T04:48:32.599Z,56.54
2019-03-13T04:51:05.394Z,57.61
2019-03-13T04:53:38.156Z,59.01
2019-03-13T04:56:11.011Z,58.98
2019-03-13T04:58:43.822Z,59.07
2019-03-13T05:01:16.596Z,60.63
2019-03-13T05:03:49.388Z,61.82
2019-03-13T05:06:24.242Z,62.28
2019-03-13T05:09:21.644Z,62.69
2019-03-13T05:11:54.491Z,63.02
2019-03-13T05:14:27.441Z,63.45
2019-03-13T05:17:00.274Z,63.48
2019-03-13T05:19:33.070Z,63.89
2019-03-13T05:22:05.865Z,64.04
2019-03-13T05:24:38.577Z,64.79
2019-03-13T05:27:11.381Z,65.41
2019-03-13T05:29:44.282Z,65.35
2019-03-13T05:32:17.091Z,65.85
2019-03-13T05:34:49.960Z,65.94
2019-03-13T05:37:22.812Z,66.17
2019-03-13T05:39:55.582Z,66.30
2019-03-13T05:42:28.604Z,66.88
2019-03-13T05:45:01.797Z,66.40
2019-03-13T05:47:34.719Z,66.88
2019-03-13T05:50:07.908Z,68.29
2019-03-13T05:52:41.770Z,72.62
2019-03-13T05:55:14.812Z,70.01
2019-03-13T05:57:47.608Z,70.59
2019-03-13T06:00:21.257Z,70.15
2019-03-13T06:02:54.123Z,70.58
2019-03-13T06:05:27.017Z,69.65
2019-03-13T06:07:59.891Z,71.01
2019-03-13T06:10:32.874Z,71.41
2019-03-13T06:13:05.789Z,72.03
2019-03-13T06:15:38.614Z,71.84
2019-03-13T06:18:11.379Z,72.99
2019-03-13T06:20:44.123Z,73.20
2019-03-13T06:23:17.038Z,72.85
2019-03-13T06:25:50.032Z,72.75
2019-03-13T06:28:22.830Z,72.79
2019-03-13T06:30:55.544Z,73.38
2019-03-13T06:33:28.376Z,73.42
2019-03-13T06:36:01.225Z,73.63
2019-03-13T06:38:34.096Z,73.55
2019-03-13T06:41:07.014Z,73.48
2019-03-13T06:43:39.843Z,73.52
2019-03-13T06:46:12.663Z,72.98
2019-03-13T06:48:45.533Z,72.54
2019-03-13T06:51:18.256Z,72.27
2019-03-13T06:53:51.029Z,72.53
2019-03-13T06:56:23.984Z,72.26
2019-03-13T06:59:14.283Z,72.56
2019-03-13T07:02:04.563Z,72.45
2019-03-13T07:04:56.241Z,72.27
2019-03-13T07:07:46.703Z,72.38
2019-03-13T07:10:26.019Z,72.21
2019-03-13T07:13:14.991Z,72.43
2019-03-13T07:15:57.032Z,72.45
2019-03-13T07:18:42.272Z,71.84
2019-03-13T07:21:30.640Z,71.71
2019-03-13T07:24:21.002Z,71.06
2019-03-13T07:27:26.251Z,70.79
2019-03-13T07:30:22.429Z,71.77
2019-03-13T07:33:29.213Z,71.43
2019-03-13T07:36:15.608Z,71.11
2019-03-13T07:39:11.325Z,71.14
2019-03-13T07:42:05.991Z,71.05
2019-03-13T07:44:57.630Z,71.32
2019-03-13T07:47:41.497Z,70.89
2019-03-13T07:50:42.200Z,70.98
2019-03-13T07:53:45.875Z,70.85
2019-03-13T07:56:43.915Z,71.38
2019-03-13T07:59:48.151Z,71.54
2019-03-13T08:02:46.164Z,71.00
2019-03-13T08:05:41.200Z,70.88
2019-03-13T08:08:48.324Z,69.76
2019-03-13T08:11:34.399Z,69.40
2019-03-13T08:14:22.780Z,69.32
2019-03-13T08:17:02.313Z,69.65
2019-03-13T08:19:59.839Z,68.91
2019-03-13T08:22:50.307Z,69.33
2019-03-13T08:25:32.452Z,68.11
2019-03-13T08:28:16.600Z,67.41
2019-03-13T08:31:10.974Z,66.73
2019-03-13T08:34:09.871Z,66.49
2019-03-13T08:36:51.912Z,65.95
2019-03-13T08:39:46.549Z,65.87
2019-03-13T08:42:30.669Z,66.17
2019-03-13T08:45:19.883Z,64.98
2019-03-13T08:48:20.477Z,63.67
2019-03-13T08:51:12.020Z,64.21
2019-03-13T08:54:20.467Z,64.24
2019-03-13T08:57:22.885Z,61.66
2019-03-13T09:00:09.117Z,56.58
2019-03-13T09:02:52.440Z,57.14
2019-03-13T09:05:39.548Z,54.74
2019-03-13T09:08:37.205Z,55.42
2019-03-13T09:11:28.771Z,56.83
2019-03-13T09:14:23.311Z,52.66
2019-03-13T09:17:19.427Z,52.12
2019-03-13T09:20:13.744Z,52.29
2019-03-13T09:23:23.443Z,51.51
2019-03-13T09:26:11.513Z,49.78
2019-03-13T09:29:08.798Z,51.32
2019-03-13T09:32:00.490Z,50.67
2019-03-13T09:35:10.336Z,52.09
2019-03-13T09:38:20.067Z,53.94
2019-03-13T09:41:30.126Z,54.40
2019-03-13T09:44:21.809Z,52.77
2019-03-13T09:47:22.989Z,52.73
2019-03-13T09:50:26.731Z,53.37
2019-03-13T09:53:12.708Z,53.65
2019-03-13T09:56:04.449Z,54.12
2019-03-13T09:59:14.437Z,52.49
2019-03-13T10:02:08.891Z,51.37
2019-03-13T10:05:03.305Z,50.53
2019-03-13T10:08:03.823Z,48.81
2019-03-13T10:10:43.369Z,48.15
2019-03-13T10:13:50.151Z,46.14
2019-03-13T10:16:47.859Z,46.97
2019-03-13T10:19:43.167Z,46.20
2019-03-13T10:22:27.890Z,44.70
2019-03-13T10:25:08.780Z,44.66
2019-03-13T10:28:12.510Z,44.16
2019-03-13T10:31:08.282Z,44.86
2019-03-13T10:34:02.963Z,44.60
2019-03-13T10:37:06.634Z,46.66
2019-03-13T10:40:07.802Z,47.37
2019-03-13T10:43:02.332Z,48.77
2019-03-13T10:45:56.801Z,49.34
2019-03-13T10:49:03.652Z,48.11
2019-03-13T10:51:48.518Z,45.92
2019-03-13T10:54:28.215Z,47.07
2019-03-13T10:57:10.715Z,47.95
2019-03-13T10:59:49.345Z,49.01
2019-03-13T11:02:37.531Z,48.44
2019-03-13T11:05:30.073Z,48.12
2019-03-13T11:08:12.645Z,46.66
2019-03-13T11:10:53.438Z,45.73
2019-03-13T11:13:33.569Z,45.26
2019-03-13T11:16:27.988Z,44.62
2019-03-13T11:19:23.379Z,45.63
2019-03-13T11:22:08.716Z,46.19
2019-03-13T11:24:53.087Z,45.27
2019-03-13T11:27:43.784Z,45.73
2019-03-13T11:30:35.989Z,46.61
2019-03-13T11:33:33.902Z,45.24
2019-03-13T11:36:16.298Z,45.10
2019-03-13T11:39:04.024Z,44.93
2019-03-13T11:42:03.588Z,45.17
2019-03-13T11:44:58.637Z,43.29
2019-03-13T11:47:50.294Z,40.77
2019-03-13T11:50:28.629Z,41.83
2019-03-13T11:53:13.121Z,41.74
2019-03-13T11:56:07.517Z,40.47
2019-03-13T11:58:53.078Z,39.69
2019-03-13T12:01:47.688Z,37.81
2019-03-13T12:04:55.210Z,37.63
2019-03-13T12:07:46.856Z,37.89
2019-03-13T12:10:37.361Z,37.14
2019-03-13T12:13:23.584Z,36.65
2019-03-13T12:16:14.135Z,36.90
2019-03-13T12:19:06.433Z,36.16
2019-03-13T12:21:49.598Z,37.59
2019-03-13T12:24:30.037Z,38.68
2019-03-13T12:27:17.698Z,39.09
2019-03-13T12:30:04.152Z,40.03
2019-03-13T12:33:11.706Z,41.02
2019-03-13T12:36:49.534Z,42.20
2019-03-13T12:39:42.241Z,42.78
2019-03-13T12:42:34.112Z,42.74
2019-03-13T12:45:27.846Z,42.88
2019-03-13T12:48:16.661Z,41.89
2019-03-13T12:51:01.761Z,42.49
2019-03-13T12:53:44.180Z,41.29
2019-03-13T12:56:45.039Z,40.45
2019-03-13T12:59:48.645Z,41.14
2019-03-13T13:02:49.593Z,41.04
2019-03-13T13:05:41.114Z,41.82
2019-03-13T13:08:41.815Z,42.83
2019-03-13T13:11:48.564Z,41.88
2019-03-13T13:14:35.329Z,41.94
2019-03-13T13:17:34.096Z,40.24
2019-03-13T13:20:08.563Z,40.63
2019-03-13T13:22:41.504Z,40.41
2019-03-13T13:25:15.410Z,39.76
2019-03-13T13:27:48.272Z,38.26
2019-03-13T13:30:21.100Z,40.66
2019-03-13T13:32:53.889Z,39.94
2019-03-13T13:35:26.747Z,40.93
2019-03-13T13:37:59.636Z,40.15
2019-03-13T13:40:32.535Z,38.72
2019-03-13T13:43:05.313Z,39.82
2019-03-13T13:46:15.070Z,40.19
2019-03-13T13:48:48.292Z,38.76
2019-03-13T13:51:21.125Z,37.66
2019-03-13T13:53:55.799Z,36.15
2019-03-13T13:56:28.949Z,37.93
2019-03-13T13:59:01.737Z,37.48
2019-03-13T14:01:34.613Z,37.34
2019-03-13T14:04:07.473Z,38.60
2019-03-13T14:06:40.380Z,38.12
2019-03-13T14:09:13.304Z,39.40
2019-03-13T14:11:46.211Z,40.69
2019-03-13T14:14:19.129Z,40.29
2019-03-13T14:16:51.808Z,39.70
2019-03-13T14:19:24.712Z,39.38
2019-03-13T14:21:57.620Z,39.46
2019-03-13T14:24:30.561Z,40.02
2019-03-13T14:27:13.879Z,39.99
2019-03-13T14:29:38.890Z,39.49
2019-03-13T14:32:11.612Z,40.57
2019-03-13T14:34:44.499Z,40.70
2019-03-13T14:37:17.337Z,39.82
2019-03-13T14:39:50.134Z,40.30
2019-03-13T14:42:23.052Z,40.29
2019-03-13T14:44:55.764Z,40.53
2019-03-13T14:47:28.681Z,39.45
2019-03-13T14:50:02.996Z,39.83
2019-03-13T14:52:36.290Z,40.64
2019-03-13T14:55:10.754Z,40.40
2019-03-13T14:57:43.491Z,40.17
2019-03-13T15:00:17.778Z,39.17
2019-03-13T15:02:50.834Z,40.05
2019-03-13T15:05:23.639Z,41.23
2019-03-13T15:07:56.478Z,39.56
2019-03-13T15:10:30.306Z,40.05
2019-03-13T15:13:03.292Z,40.33
2019-03-13T15:15:36.432Z,39.58
2019-03-13T15:18:09.298Z,40.16
2019-03-13T15:20:42.109Z,41.80
2019-03-13T15:23:14.889Z,40.93
2019-03-13T15:25:48.716Z,44.51
2019-03-13T15:28:21.983Z,43.43
2019-03-13T15:30:54.871Z,41.37
2019-03-13T15:33:27.972Z,42.97
2019-03-13T15:36:00.806Z,40.40
2019-03-13T15:38:36.141Z,40.20
2019-03-13T15:41:11.406Z,41.14
2019-03-13T15:43:44.474Z,41.30
2019-03-13T15:46:17.434Z,40.45
2019-03-13T15:48:50.391Z,41.47
2019-03-13T15:51:23.110Z,42.46
2019-03-13T15:53:55.893Z,43.28
2019-03-13T15:56:31.496Z,42.51
2019-03-13T15:59:04.409Z,43.29
2019-03-13T16:01:37.303Z,42.76
2019-03-13T16:04:10.185Z,43.44
2019-03-13T16:06:42.960Z,43.32
2019-03-13T16:09:18.670Z,44.25
2019-03-13T16:11:51.471Z,44.55
2019-03-13T16:14:24.205Z,44.61
2019-03-13T16:16:57.363Z,45.02
2019-03-13T16:19:30.360Z,44.41
2019-03-13T16:22:05.671Z,44.72
2019-03-13T16:24:38.815Z,44.71
2019-03-13T16:27:11.767Z,44.89
2019-03-13T16:29:47.256Z,45.17
2019-03-13T16:32:20.762Z,45.02
2019-03-13T16:34:53.696Z,45.62
2019-03-13T16:37:28.147Z,45.69
2019-03-13T16:40:00.982Z,45.44
2019-03-13T16:42:34.038Z,45.91
2019-03-13T16:45:08.584Z,46.06
2019-03-13T16:47:41.547Z,46.26
2019-03-13T16:50:16.629Z,46.69
2019-03-13T16:52:49.649Z,46.86
2019-03-13T16:55:23.547Z,47.08
2019-03-13T16:57:56.369Z,46.81
2019-03-13T17:00:29.812Z,46.22
2019-03-13T17:03:02.894Z,46.10
2019-03-13T17:05:35.797Z,46.25
2019-03-13T17:08:08.732Z,46.09
2019-03-13T17:10:41.502Z,45.83
2019-03-13T17:13:14.361Z,46.04
2019-03-13T17:15:48.075Z,46.09
2019-03-13T17:18:21.065Z,46.74
2019-03-13T17:20:54.036Z,46.57
2019-03-13T17:23:27.813Z,46.66
2019-03-13T17:26:00.823Z,45.89
2019-03-13T17:28:34.064Z,45.89
2019-03-13T17:31:07.256Z,46.05
2019-03-13T17:33:40.086Z,45.88
2019-03-13T17:36:13.361Z,46.13
2019-03-13T17:38:46.406Z,46.48
2019-03-13T17:41:19.325Z,46.89
2019-03-13T17:43:52.279Z,47.29
2019-03-13T17:46:25.208Z,47.41
2019-03-13T17:48:58.298Z,46.15
2019-03-13T17:51:31.120Z,46.50
2019-03-13T17:54:04.426Z,47.00
2019-03-13T17:56:37.194Z,47.03
2019-03-13T17:59:11.316Z,47.43
2019-03-13T18:01:44.109Z,47.51
2019-03-13T18:04:16.924Z,47.86
2019-03-13T18:06:50.769Z,47.82
2019-03-13T18:09:24.728Z,48.13
2019-03-13T18:11:57.581Z,47.86
2019-03-13T18:14:32.176Z,48.03
2019-03-13T18:17:04.959Z,48.61
2019-03-13T18:19:38.005Z,48.48
2019-03-13T18:22:10.765Z,48.62
2019-03-13T18:24:43.615Z,48.99
2019-03-13T18:27:16.412Z,49.34
2019-03-13T18:29:50.309Z,49.04
2019-03-13T18:32:23.127Z,49.51
2019-03-13T18:34:55.892Z,49.32
2019-03-13T18:37:28.776Z,49.54
2019-03-13T18:40:01.611Z,49.45
2019-03-13T18:42:34.567Z,49.39
2019-03-13T18:45:11.126Z,49.72
2019-03-13T18:47:44.986Z,49.74
2019-03-13T18:50:18.024Z,49.23
2019-03-13T18:52:50.879Z,49.57
2019-03-13T18:55:24.207Z,49.75
2019-03-13T18:57:57.049Z,49.67
2019-03-13T19:00:31.113Z,49.40
2019-03-13T19:03:04.215Z,49.54
2019-03-13T19:05:37.039Z,49.66
2019-03-13T19:08:10.090Z,49.49
2019-03-13T19:10:43.419Z,49.23
2019-03-13T19:13:16.338Z,49.10
2019-03-13T19:15:49.209Z,49.39
2019-03-13T19:18:22.055Z,49.39
2019-03-13T19:20:54.822Z,49.00
2019-03-13T19:23:27.764Z,48.94
2019-03-13T19:26:00.785Z,48.79
2019-03-13T19:28:33.774Z,48.83
2019-03-13T19:31:07.818Z,49.61
2019-03-13T19:33:40.697Z,49.69
2019-03-13T19:36:13.460Z,49.91
2019-03-13T19:38:46.358Z,49.53
2019-03-13T19:41:19.157Z,49.33
2019-03-13T19:43:51.928Z,48.97
2019-03-13T19:46:24.857Z,49.46
2019-03-13T19:48:57.869Z,49.40
2019-03-13T19:51:30.703Z,49.04
2019-03-13T19:54:03.731Z,49.30
2019-03-13T19:56:36.694Z,48.98
2019-03-13T19:59:09.754Z,49.52
2019-03-13T20:01:42.596Z,48.86
2019-03-13T20:04:16.101Z,48.59
2019-03-13T20:06:52.097Z,48.79
2019-03-13T20:09:25.328Z,48.29
2019-03-13T20:11:58.317Z,48.46
2019-03-13T20:14:31.317Z,48.94
2019-03-13T20:17:05.070Z,48.38
2019-03-13T20:19:38.180Z,48.39
2019-03-13T20:22:10.941Z,47.93
2019-03-13T20:24:43.958Z,47.74
2019-03-13T20:27:16.956Z,47.89
2019-03-13T20:29:51.617Z,47.58
2019-03-13T20:32:24.659Z,47.89
2019-03-13T20:34:57.566Z,47.91
2019-03-13T20:37:30.356Z,48.20
2019-03-13T20:40:03.184Z,47.63
2019-03-13T20:42:37.556Z,47.28
2019-03-13T20:45:12.948Z,47.80
2019-03-13T20:47:46.178Z,47.39
2019-03-13T20:50:20.576Z,47.96
2019-03-13T20:52:53.565Z,47.39
2019-03-13T20:55:26.429Z,47.83
2019-03-13T20:57:59.528Z,47.86
2019-03-13T21:00:34.645Z,48.14
2019-03-13T21:03:07.676Z,47.71
2019-03-13T21:05:40.544Z,47.91
2019-03-13T21:08:13.800Z,48.31
2019-03-13T21:10:46.822Z,47.94
2019-03-13T21:13:19.713Z,48.71
2019-03-13T21:15:52.507Z,48.80
2019-03-13T21:18:25.367Z,48.06
2019-03-13T21:20:59.295Z,48.36
2019-03-13T21:23:32.059Z,48.42
2019-03-13T21:26:05.023Z,48.36
2019-03-13T21:28:37.905Z,48.15
2019-03-13T21:31:10.810Z,48.70
2019-03-13T21:33:44.602Z,48.41
2019-03-13T21:36:17.531Z,48.49
2019-03-13T21:38:51.447Z,48.78
2019-03-13T21:41:24.241Z,48.73
2019-03-13T21:43:57.069Z,48.26
2019-03-13T21:46:29.965Z,48.37
2019-03-13T21:49:03.111Z,48.84
2019-03-13T21:51:36.030Z,48.89
2019-03-13T21:54:08.923Z,49.10
2019-03-13T21:56:41.631Z,48.27
2019-03-13T21:59:18.556Z,48.53
2019-03-13T22:01:51.362Z,48.72
2019-03-13T22:04:26.143Z,48.72
2019-03-13T22:07:02.679Z,48.54
2019-03-13T22:09:37.622Z,48.29
2019-03-13T22:12:11.639Z,48.22
2019-03-13T22:14:46.639Z,48.02
2019-03-13T22:17:19.460Z,47.33
2019-03-13T22:19:53.687Z,47.19
2019-03-13T22:22:26.829Z,47.35
2019-03-13T22:24:59.528Z,47.37
2019-03-13T22:27:33.356Z,47.10
2019-03-13T22:30:07.647Z,47.42
2019-03-13T22:32:41.740Z,47.55
2019-03-13T22:35:14.514Z,47.24
2019-03-13T22:37:47.407Z,46.83
2019-03-13T22:40:20.917Z,47.26
2019-03-13T22:42:53.645Z,47.76
2019-03-13T22:45:26.572Z,47.58
2019-03-13T22:47:59.321Z,48.17
2019-03-13T22:50:33.289Z,47.62
2019-03-13T22:53:06.228Z,48.34
2019-03-13T22:55:41.037Z,48.18
2019-03-13T22:58:13.415Z,48.74
2019-03-13T23:01:00.446Z,48.48
2019-03-13T23:03:34.959Z,48.38
2019-03-13T23:06:09.242Z,48.78
2019-03-13T23:08:42.089Z,48.31
2019-03-13T23:11:16.094Z,47.76
2019-03-13T23:13:50.520Z,48.42
2019-03-13T23:16:23.989Z,48.79
2019-03-13T23:18:57.010Z,48.93
2019-03-13T23:21:29.913Z,49.10
2019-03-13T23:24:02.893Z,49.26
2019-03-13T23:26:35.984Z,49.19
2019-03-13T23:29:10.599Z,49.08
2019-03-13T23:31:43.442Z,48.99
2019-03-13T23:34:16.370Z,49.19
2019-03-13T23:36:50.462Z,49.51
2019-03-13T23:39:23.179Z,49.73
2019-03-13T23:41:58.018Z,49.80
2019-03-13T23:44:32.183Z,50.28
2019-03-13T23:47:05.106Z,49.92
2019-03-13T23:49:39.157Z,50.34
2019-03-13T23:52:12.232Z,50.36
